createdAt,value
2023-02-14T00:08:35.889Z,25.05
2023-02-14T00:14:02.006Z,24.27
2023-02-14T00:19:06.435Z,25.40
2023-02-14T00:24:13.317Z,24.92
2023-02-14T00:29:21.178Z,22.70
2023-02-14T00:34:27.816Z,24.58
2023-02-14T00:39:32.527Z,21.70
2023-02-14T00:44:38.445Z,20.55
2023-02-14T00:49:43.162Z,22.35
2023-02-14T00:54:47.733Z,21.75
2023-02-14T00:59:53.822Z,22.08
2023-02-14T01:04:58.651Z,22.05
2023-02-14T01:10:03.113Z,16.95
2023-02-14T01:15:10.563Z,23.23
2023-02-14T01:20:15.932Z,19.60
2023-02-14T01:25:20.503Z,19.38
2023-02-14T01:30:27.139Z,18.00
2023-02-14T01:35:31.956Z,18.77
2023-02-14T01:40:36.415Z,18.75
2023-02-14T01:45:43.807Z,19.63
2023-02-14T01:50:50.712Z,17.05
2023-02-14T01:56:03.942Z,18.50
2023-02-14T02:01:10.153Z,18.15
2023-02-14T02:06:18.160Z,14.80
2023-02-14T02:11:22.695Z,19.10
2023-02-14T02:16:48.756Z,18.02
2023-02-14T02:22:21.633Z,16.25
2023-02-14T02:28:02.705Z,21.90
2023-02-14T02:33:49.622Z,18.33
2023-02-14T02:39:11.837Z,17.48
2023-02-14T02:44:20.817Z,17.95
2023-02-14T02:49:57.737Z,20.30
2023-02-14T02:55:09.194Z,18.80
2023-02-14T03:00:16.521Z,16.23
2023-02-14T03:05:21.437Z,19.42
2023-02-14T03:10:33.531Z,16.85
2023-02-14T03:15:54.158Z,17.92
2023-02-14T03:21:06.232Z,16.23
2023-02-14T03:26:17.742Z,13.70
2023-02-14T03:31:31.310Z,12.90
2023-02-14T03:36:42.547Z,13.70
2023-02-14T03:41:54.628Z,15.32
2023-02-14T03:47:02.422Z,15.52
2023-02-14T03:52:11.183Z,14.82
2023-02-14T03:57:22.248Z,17.13
2023-02-14T04:02:35.555Z,17.50
2023-02-14T04:07:49.273Z,19.33
2023-02-14T04:12:58.759Z,18.60
2023-02-14T04:18:38.542Z,18.80
2023-02-14T04:23:46.567Z,14.85
2023-02-14T04:28:55.811Z,17.48
2023-02-14T04:34:03.859Z,17.55
2023-02-14T04:39:11.661Z,14.43
2023-02-14T04:44:21.011Z,19.38
2023-02-14T04:49:29.549Z,13.43
2023-02-14T04:54:37.654Z,16.45
2023-02-14T04:59:47.072Z,16.67
2023-02-14T05:04:54.801Z,16.83
2023-02-14T05:10:02.616Z,19.13
2023-02-14T05:15:12.566Z,20.30
2023-02-14T05:20:20.316Z,16.20
2023-02-14T05:25:29.517Z,16.98
2023-02-14T05:30:40.006Z,17.95
2023-02-14T05:35:48.190Z,21.23
2023-02-14T05:40:56.117Z,19.27
2023-02-14T05:46:05.633Z,19.55
2023-02-14T05:51:14.417Z,18.17
2023-02-14T05:56:21.215Z,20.50
2023-02-14T06:01:29.824Z,25.88
2023-02-14T06:06:37.603Z,31.90
2023-02-14T06:11:45.683Z,25.10
2023-02-14T06:16:55.041Z,51.17
2023-02-14T06:22:02.806Z,21.58
2023-02-14T06:27:09.029Z,29.65
2023-02-14T06:32:17.968Z,34.80
2023-02-14T06:37:26.104Z,21.33
2023-02-14T06:42:33.786Z,34.33
2023-02-14T06:47:43.116Z,24.50
2023-02-14T06:52:51.809Z,37.60
2023-02-14T06:57:59.509Z,42.10
2023-02-14T07:03:06.954Z,39.20
2023-02-14T07:08:14.438Z,36.35
2023-02-14T07:13:21.689Z,28.50
2023-02-14T07:18:30.236Z,34.25
2023-02-14T07:23:37.062Z,25.02
2023-02-14T07:28:45.180Z,27.88
2023-02-14T07:33:54.935Z,26.05
2023-02-14T07:39:01.560Z,28.67
2023-02-14T07:44:08.732Z,21.95
2023-02-14T07:49:17.709Z,22.27
2023-02-14T07:54:26.119Z,21.02
2023-02-14T07:59:33.598Z,21.95
2023-02-14T08:04:42.539Z,21.95
2023-02-14T08:09:50.097Z,22.95
2023-02-14T08:15:16.833Z,17.77
2023-02-14T08:20:25.339Z,27.45
2023-02-14T08:25:33.138Z,21.38
2023-02-14T08:30:40.964Z,23.27
2023-02-14T08:35:50.697Z,18.63
2023-02-14T08:41:05.114Z,24.52
2023-02-14T08:46:15.567Z,24.33
2023-02-14T08:51:26.729Z,24.63
2023-02-14T08:56:34.583Z,24.80
2023-02-14T09:01:45.368Z,20.30
2023-02-14T09:06:54.784Z,22.80
2023-02-14T09:12:06.865Z,23.05
2023-02-14T09:17:16.008Z,20.38
2023-02-14T09:22:25.091Z,31.00
2023-02-14T09:27:33.170Z,31.05
2023-02-14T09:32:41.758Z,25.30
2023-02-14T09:38:10.362Z,22.02
2023-02-14T09:43:25.284Z,21.80
2023-02-14T09:48:42.049Z,21.27
2023-02-14T09:53:57.437Z,25.88
2023-02-14T09:59:12.325Z,23.35
2023-02-14T10:04:29.250Z,24.02
2023-02-14T10:10:02.399Z,28.33
2023-02-14T10:15:18.010Z,24.95
2023-02-14T10:20:30.733Z,24.98
2023-02-14T10:25:47.393Z,19.80
2023-02-14T10:31:05.637Z,21.60
2023-02-14T10:36:22.719Z,19.92
2023-02-14T10:41:42.003Z,25.98
2023-02-14T10:46:57.422Z,18.75
2023-02-14T10:52:14.730Z,18.90
2023-02-14T10:57:29.028Z,18.20
2023-02-14T11:02:40.389Z,20.90
2023-02-14T11:07:46.608Z,24.25
2023-02-14T11:12:53.485Z,21.20
2023-02-14T11:18:19.037Z,20.55
2023-02-14T11:28:37.413Z,18.98
2023-02-14T11:33:51.370Z,19.38
2023-02-14T11:39:09.487Z,17.73
2023-02-14T11:44:23.232Z,19.00
2023-02-14T11:49:34.137Z,23.25
2023-02-14T11:54:45.402Z,17.90
2023-02-14T11:59:57.173Z,16.33
2023-02-14T12:05:08.014Z,22.83
2023-02-14T12:10:28.983Z,22.08
2023-02-14T12:15:41.024Z,22.45
2023-02-14T12:20:56.742Z,21.10
2023-02-14T12:31:14.814Z,17.65
2023-02-14T12:36:36.533Z,17.88
2023-02-14T12:41:51.784Z,19.48
2023-02-14T12:47:11.478Z,18.40
2023-02-14T12:52:37.233Z,22.50
2023-02-14T13:03:23.268Z,21.40
2023-02-14T13:09:02.042Z,22.42
2023-02-14T13:14:24.307Z,20.73
2023-02-14T13:19:44.569Z,18.83
2023-02-14T13:24:55.320Z,21.38
2023-02-14T13:30:05.161Z,14.60
2023-02-14T13:35:20.635Z,19.30
2023-02-14T13:40:30.679Z,19.23
2023-02-14T13:46:08.040Z,22.38
2023-02-14T13:51:15.613Z,16.88
2023-02-14T13:56:43.472Z,18.48
2023-02-14T14:01:52.157Z,18.95
2023-02-14T14:07:23.840Z,27.20
2023-02-14T14:12:44.629Z,22.55
2023-02-14T14:18:11.072Z,23.33
2023-02-14T14:23:39.030Z,31.75
2023-02-14T14:28:49.113Z,23.52
2023-02-14T14:34:01.329Z,26.95
2023-02-14T14:39:11.938Z,18.30
2023-02-14T14:44:18.104Z,25.17
2023-02-14T14:54:33.132Z,35.83
2023-02-14T14:59:40.317Z,19.75
2023-02-14T15:04:46.134Z,24.95
2023-02-14T15:15:00.958Z,30.05
2023-02-14T15:20:11.940Z,31.50
2023-02-14T15:25:22.248Z,24.65
2023-02-14T15:30:34.046Z,30.55
2023-02-14T15:35:44.422Z,27.88
2023-02-14T15:40:55.045Z,36.90
2023-02-14T15:46:17.586Z,32.28
2023-02-14T15:51:27.998Z,37.72
2023-02-14T15:56:39.212Z,37.30
2023-02-14T16:01:53.262Z,34.60
2023-02-14T16:07:09.670Z,40.55
2023-02-14T16:12:33.914Z,32.63
2023-02-14T16:17:40.286Z,33.75
2023-02-14T16:27:51.360Z,37.85
2023-02-14T16:32:57.269Z,39.35
2023-02-14T16:43:07.487Z,35.65
2023-02-14T16:53:27.338Z,47.05
2023-02-14T16:58:36.327Z,51.30
2023-02-14T17:03:44.762Z,39.65
2023-02-14T17:08:52.866Z,45.08
2023-02-14T17:13:59.348Z,45.70
2023-02-14T17:19:04.628Z,43.03
2023-02-14T17:24:10.632Z,44.03
2023-02-14T17:29:16.992Z,42.95
2023-02-14T17:34:21.661Z,43.80
2023-02-14T17:39:26.260Z,45.95
2023-02-14T17:44:36.014Z,46.13
2023-02-14T17:49:41.996Z,42.17
2023-02-14T17:59:52.356Z,37.75
2023-02-14T18:04:57.902Z,36.22
2023-02-14T18:15:09.416Z,30.48
2023-02-14T18:20:14.352Z,33.50
2023-02-14T18:25:19.061Z,33.80
2023-02-14T18:30:25.531Z,36.47
2023-02-14T18:35:30.224Z,34.25
2023-02-14T18:40:35.219Z,37.38
2023-02-14T18:45:41.834Z,27.97
2023-02-14T18:50:47.650Z,31.27
2023-02-14T18:55:52.395Z,34.15
2023-02-14T19:00:59.371Z,36.60
2023-02-14T19:06:04.756Z,33.00
2023-02-14T19:11:12.107Z,38.60
2023-02-14T19:16:20.716Z,32.28
2023-02-14T19:21:28.229Z,36.65
2023-02-14T19:26:35.069Z,28.58
2023-02-14T19:31:43.521Z,33.78
2023-02-14T19:36:49.116Z,35.25
2023-02-14T19:41:53.794Z,41.15
2023-02-14T19:47:04.204Z,30.58
2023-02-14T19:52:25.798Z,37.10
2023-02-14T19:57:31.130Z,38.47
2023-02-14T20:02:37.280Z,42.42
2023-02-14T20:07:43.463Z,32.00
2023-02-14T20:17:53.681Z,30.05
2023-02-14T20:28:02.629Z,32.15
2023-02-14T20:33:08.788Z,36.05
2023-02-14T20:38:13.439Z,35.72
2023-02-14T20:43:17.986Z,33.85
2023-02-14T20:48:24.095Z,34.75
2023-02-14T20:53:29.363Z,37.97
2023-02-14T20:58:34.691Z,34.58
2023-02-14T21:03:41.793Z,44.70
2023-02-14T21:08:46.667Z,45.88
2023-02-14T21:13:52.147Z,34.53
2023-02-14T21:19:00.314Z,37.22
2023-02-14T21:24:06.776Z,36.58
2023-02-14T21:29:11.594Z,35.42
2023-02-14T21:34:18.043Z,39.22
2023-02-14T21:39:27.554Z,45.83
2023-02-14T21:44:49.300Z,42.40
2023-02-14T21:50:12.240Z,29.00
2023-02-14T21:55:17.632Z,34.13
2023-02-14T22:00:23.541Z,40.17
2023-02-14T22:05:29.532Z,36.10
2023-02-14T22:10:33.853Z,29.65
2023-02-14T22:15:41.549Z,37.25
2023-02-14T22:20:47.986Z,34.10
2023-02-14T22:25:52.561Z,37.08
2023-02-14T22:31:01.243Z,31.90
2023-02-14T22:36:08.554Z,29.85
2023-02-14T22:41:15.410Z,35.00
2023-02-14T22:46:21.963Z,37.08
2023-02-14T22:51:30.925Z,34.83
2023-02-14T22:56:38.809Z,36.85
2023-02-14T23:01:43.419Z,34.60
2023-02-14T23:06:50.282Z,35.75
2023-02-14T23:11:56.305Z,39.92
2023-02-14T23:22:22.060Z,30.63
2023-02-14T23:27:31.044Z,40.03
2023-02-14T23:32:35.478Z,36.95
2023-02-14T23:37:41.865Z,34.90
2023-02-14T23:42:46.211Z,40.90
2023-02-14T23:47:50.744Z,40.67
2023-02-14T23:52:57.523Z,36.72
2023-02-14T23:58:02.053Z,34.08
